Date,TemperatureHighF,TemperatureAvgF,TemperatureLowF,DewpointHighF,DewpointAvgF,DewpointLowF,HumidityHigh,HumidityAvg,HumidityLow,PressureMaxIn,PressureMinIn,WindSpeedMaxMPH,WindSpeedAvgMPH,GustSpeedMaxMPH,PrecipitationSumIn
2013-1-1,50,47,42,50,40,28,98,80,49,29.98,29.82,5,1,0,0.29
2013-1-2,50,45,41,49,42,36,98,87,71,30.08,29.80,4,1,0,0.27
2013-1-3,47,40,30,37,34,25,87,79,62,30.15,30.03,3,0,0,0.00
2013-1-4,52,37,25,28,24,20,87,62,35,30.21,30.07,4,1,0,0.00
2013-1-5,50,37,25,30,24,19,80,61,38,30.28,30.14,3,0,0,0.00
2013-1-6,51,43,34,38,34,29,88,73,59,30.13,29.93,3,0,0,0.00
2013-1-7,54,38,27,34,29,23,88,72,45,30.31,30.05,4,1,0,0.00
2013-1-8,58,43,29,40,35,25,89,74,47,30.35,30.24,3,0,0,0.00
2013-1-9,69,50,35,51,42,32,98,77,51,30.34,30.23,3,0,0,0.00
2013-1-10,65,53,45,49,45,36,98,77,51,30.41,30.29,3,0,0,0.00
2013-1-11,51,48,42,51,43,33,98,87,53,30.31,30.02,4,0,0,0.25
2013-1-12,72,57,49,63,55,48,98,93,72,30.05,29.96,3,0,0,0.00
2013-1-13,76,63,51,62,57,51,98,84,59,30.01,29.91,5,1,0,0.00
2013-1-14,70,64,58,64,59,55,98,85,76,30.02,29.94,4,0,0,0.00
2013-1-15,64,48,45,60,46,43,98,94,83,30.10,29.92,5,1,0,0.00
2013-1-16,50,47,44,50,46,44,98,98,98,29.95,29.84,3,0,0,0.19
2013-1-17,51,46,33,50,46,32,98,98,91,30.04,29.74,12,2,0,1.45
2013-1-18,49,36,28,34,29,24,98,77,42,30.41,30.02,4,1,0,0.29
2013-1-19,56,39,25,33,27,21,87,66,36,30.38,30.03,6,1,0,0.00
2013-1-20,65,48,36,39,33,28,77,60,33,30.02,29.85,4,1,0,0.00
2013-1-21,61,44,29,34,28,19,89,56,33,29.96,29.73,8,1,0,0.00
2013-1-22,40,33,24,19,7,-4,53,34,16,30.16,29.83,6,2,0,0.00
2013-1-23,42,29,17,16,10,1,73,45,29,30.26,29.93,5,1,0,0.00
2013-1-24,38,31,23,23,12,1,76,47,25,30.39,29.84,8,2,0,0.00
2013-1-25,28,25,20,24,13,2,86,63,35,30.41,29.99,3,0,0,0.06
2013-1-26,42,31,27,33,26,23,98,83,61,30.29,29.96,2,0,0,0.21
2013-1-27,43,33,23,28,25,19,98,75,52,30.48,30.29,4,0,0,0.00
2013-1-28,52,43,33,45,35,26,85,74,61,30.39,30.10,4,1,0,0.01
2013-1-29,74,58,46,59,52,45,98,81,57,30.11,29.92,4,1,0,0.00
2013-1-30,72,67,59,64,62,56,98,84,72,29.93,29.24,14,4,0,0.31
2013-1-31,60,47,34,60,31,20,98,57,34,29.89,29.33,9,3,0,0.14
2013-2-1,40,35,24,28,14,3,65,43,25,30.27,29.76,8,2,0,0.00
2013-2-2,45,34,17,35,13,6,78,45,26,30.28,29.90,7,1,0,0.00
2013-2-3,51,42,31,35,30,22,85,64,44,29.89,29.72,4,1,0,0.00
2013-2-4,49,38,25,27,23,19,82,58,36,30.02,29.87,5,1,0,0.00
2013-2-5,64,47,37,37,32,27,79,59,36,29.88,29.74,5,1,0,0.00
2013-2-6,65,45,31,37,29,22,97,59,19,30.16,29.84,5,1,0,0.00
2013-2-7,50,43,36,43,37,31,98,80,65,30.19,29.85,7,2,0,0.39
2013-2-8,57,46,40,46,40,28,98,82,57,29.93,29.68,6,3,0,0.73
2013-2-9,54,40,28,28,24,18,84,56,25,30.24,29.92,10,1,0,0.00
2013-2-10,56,40,24,40,24,19,84,57,27,30.37,30.07,5,1,0,0.02
2013-2-11,63,57,45,62,55,40,98,94,84,30.07,29.78,7,1,0,0.07
2013-2-12,63,53,45,55,38,29,98,62,29,29.96,29.77,4,1,0,0.01
2013-2-13,49,46,42,48,44,36,98,93,61,29.82,29.49,5,0,0,0.15
2013-2-14,53,41,30,36,32,28,98,73,47,29.94,29.71,5,0,0,0.00
2013-2-15,64,44,28,41,32,24,98,67,32,29.97,29.78,4,0,0,0.00
2013-2-16,45,37,31,36,32,24,98,83,63,29.84,29.69,4,1,0,0.42
2013-2-17,40,30,22,24,14,9,75,54,31,30.16,29.79,9,2,0,0.11
2013-2-18,54,36,17,25,17,11,82,52,24,30.29,30.13,5,1,0,0.01
2013-2-19,52,43,35,51,38,25,98,83,60,30.12,29.72,4,1,0,0.16
2013-2-20,55,41,27,37,22,14,98,52,24,30.01,29.83,5,1,0,0.00
2013-2-21,58,41,24,24,19,15,80,45,21,30.12,29.98,4,1,0,0.00
2013-2-22,43,37,33,36,32,21,98,84,42,30.23,30.01,4,1,0,0.47
2013-2-23,44,40,36,43,40,36,98,98,98,29.98,29.68,4,0,0,1.18
2013-2-24,64,49,37,48,39,28,98,73,34,29.91,29.66,4,1,0,0.13
2013-2-25,44,38,33,29,24,20,77,58,46,30.10,29.91,6,2,0,0.00
2013-2-26,58,46,36,57,44,24,98,90,59,30.01,29.41,7,2,0,1.01
2013-2-27,62,49,40,45,41,36,98,76,46,29.66,29.48,5,1,0,0.00
2013-2-28,51,41,31,39,32,25,98,72,43,29.72,29.56,3,0,0,0.00
2013-3-1,50,39,28,32,28,24,88,66,47,29.78,29.70,4,1,0,0.00
2013-3-2,52,38,26,32,25,19,89,63,42,29.79,29.67,4,1,0,0.00
2013-3-3,48,36,25,25,20,16,74,54,38,29.85,29.71,5,1,0,0.00
2013-3-4,52,36,22,23,17,13,70,50,25,29.99,29.84,7,1,0,0.00
2013-3-5,51,43,34,46,35,21,98,77,42,29.95,29.42,4,0,0,0.36
2013-3-6,48,43,37,47,33,27,98,70,52,29.89,29.37,11,4,0,0.01
2013-3-7,53,42,31,34,29,24,81,60,45,30.11,29.89,6,2,0,0.00
2013-3-8,57,43,28,30,26,22,80,53,32,30.16,30.01,7,2,0,0.00
2013-3-9,65,45,28,33,28,22,84,54,24,30.21,30.09,6,1,0,0.00
2013-3-10,70,50,30,38,27,19,96,49,15,30.20,30.06,4,1,0,0.00
2013-3-11,71,56,39,53,44,26,98,66,40,30.10,29.80,10,2,0,0.00
2013-3-12,73,62,50,63,54,33,98,77,48,29.80,29.60,11,2,0,0.48
2013-3-13,60,47,33,36,28,20,87,51,31,30.01,29.80,8,2,0,0.00
2013-3-14,55,41,29,26,20,16,60,44,27,30.12,29.97,7,2,0,0.00
2013-3-15,65,46,25,36,28,18,83,52,32,30.06,29.76,8,1,0,0.00
2013-3-16,80,63,49,51,45,35,68,53,36,29.76,29.50,7,2,0,0.00
2013-3-17,63,52,41,55,45,37,98,77,59,30.04,29.68,6,2,0,0.00
2013-3-18,45,42,38,43,40,38,98,95,85,30.06,29.72,4,1,0,0.46
2013-3-19,69,52,41,48,36,14,98,64,19,29.88,29.68,6,2,0,0.01
2013-3-20,58,47,36,23,17,10,49,31,21,29.99,29.65,4,1,0,0.00
2013-3-21,49,40,30,30,20,11,78,46,29,29.85,29.60,5,2,0,0.00
2013-3-22,55,38,21,24,16,11,69,43,22,29.95,29.82,5,1,0,0.00
2013-3-23,58,45,36,32,26,22,72,48,33,29.92,29.76,3,0,0,0.00
2013-3-24,42,39,34,40,35,28,98,89,71,29.80,29.43,6,2,0,0.90
2013-3-25,49,41,36,38,31,24,98,72,42,29.68,29.42,9,2,0,0.01
2013-3-26,53,42,30,32,27,23,77,56,40,29.97,29.69,5,1,0,0.00
2013-3-27,56,42,32,29,25,21,76,53,33,30.10,29.98,6,2,0,0.00
2013-3-28,58,43,28,30,25,21,78,52,30,30.17,30.02,6,1,0,0.00
2013-3-29,61,44,27,32,27,22,87,54,30,30.21,30.04,5,1,0,0.00
2013-3-30,70,54,39,44,37,28,78,55,26,30.12,29.93,4,0,0,0.00
2013-3-31,69,57,48,63,52,42,98,84,65,29.96,29.66,7,1,0,0.74
2013-4-1,74,61,53,56,48,40,98,68,34,29.80,29.65,6,1,0,0.02
2013-4-2,64,50,35,38,31,27,79,50,29,30.03,29.81,4,1,0,0.00
2013-4-3,62,50,42,31,24,20,59,38,22,30.16,30.02,5,1,0,0.00
2013-4-4,50,43,40,41,34,23,98,72,43,30.23,29.81,5,2,0,0.95
2013-4-5,67,49,40,49,43,39,98,84,49,29.87,29.74,5,1,0,0.04
2013-4-6,69,53,38,42,34,25,98,55,25,30.13,29.88,6,1,0,0.00
2013-4-7,76,55,35,48,40,31,98,59,34,30.17,29.96,7,1,0,0.00
2013-4-8,82,66,53,60,54,48,98,66,41,30.04,29.89,6,1,0,0.00
2013-4-9,88,72,57,62,58,55,98,66,36,30.04,29.88,6,1,0,0.00
2013-4-10,89,74,61,64,60,56,98,64,37,29.96,29.78,6,2,0,0.00
2013-4-11,84,72,61,66,62,57,98,71,48,29.85,29.63,6,2,0,0.00
2013-4-12,83,72,62,70,64,50,98,77,52,29.65,29.45,9,2,0,0.43
2013-4-13,79,64,50,48,43,39,71,50,28,29.84,29.61,6,1,0,0.00
2013-4-14,84,65,44,53,44,37,98,55,21,29.97,29.85,4,1,0,0.00
2013-4-15,74,66,59,60,57,52,98,73,57,30.05,29.86,4,1,0,0.02
2013-4-16,80,66,55,63,58,54,98,80,51,30.16,30.03,4,0,0,0.00
2013-4-17,85,70,58,67,62,57,98,78,48,30.09,29.95,5,1,0,0.00
2013-4-18,82,71,60,65,61,57,98,72,51,30.05,29.87,5,1,0,0.00
2013-4-19,84,72,65,70,66,61,98,83,58,29.89,29.56,7,2,0,0.81
2013-4-20,67,56,46,64,43,35,98,65,33,30.12,29.67,7,1,0,0.08
2013-4-21,66,52,40,44,40,37,98,66,42,30.36,30.13,7,2,0,0.00
2013-4-22,64,50,37,45,39,30,85,65,46,30.35,30.13,7,3,0,0.00
2013-4-23,72,56,48,52,48,44,98,77,48,30.15,29.98,6,1,0,0.01
2013-4-24,80,63,48,60,54,47,98,74,48,30.03,29.82,4,1,0,0.00
2013-4-25,74,62,49,56,48,40,87,62,36,30.12,29.86,5,1,0,0.00
2013-4-26,76,60,47,52,45,36,98,64,24,30.29,30.13,5,1,0,0.00
2013-4-27,76,64,52,54,47,43,81,58,32,30.25,30.11,5,0,0,0.00
2013-4-28,64,59,56,59,51,43,98,77,58,30.12,29.96,3,0,0,1.00
2013-4-29,75,64,55,65,60,54,98,90,64,29.97,29.81,2,0,0,1.04
2013-4-30,68,62,56,62,59,54,98,91,73,30.02,29.85,5,1,0,0.00
2013-5-1,63,59,57,59,58,56,98,95,84,30.18,30.01,6,2,0,0.00
2013-5-2,66,60,54,58,57,54,98,90,77,30.19,30.11,6,2,0,0.00
2013-5-3,71,59,49,56,51,44,98,76,50,30.14,30.02,7,2,0,0.00
2013-5-4,67,57,50,53,49,44,87,75,58,30.07,29.93,6,3,0,0.00
2013-5-5,61,56,50,56,51,46,98,84,78,29.96,29.84,7,3,0,0.00
2013-5-6,70,61,56,68,60,55,98,97,85,29.86,29.68,5,1,0,1.45
2013-5-7,75,60,49,62,54,49,98,83,44,29.80,29.71,4,0,0,0.00
2013-5-8,75,62,52,62,57,52,98,85,60,29.88,29.78,4,0,0,0.22
2013-5-9,83,67,54,63,58,54,98,78,46,29.92,29.84,5,0,0,0.01
2013-5-10,88,72,56,67,61,55,98,71,44,29.92,29.78,6,1,0,0.00
2013-5-11,85,74,68,66,64,59,89,72,52,29.79,29.63,7,1,0,0.00
2013-5-12,76,67,57,65,52,36,98,62,38,29.86,29.63,5,1,0,0.00
2013-5-13,70,58,44,42,39,35,83,52,32,30.04,29.87,5,1,0,0.00
2013-5-14,75,58,39,47,41,36,98,58,33,30.13,29.93,4,0,0,0.00
2013-5-15,90,70,55,64,55,44,81,61,41,29.94,29.74,4,1,0,0.00
2013-5-16,88,75,63,65,62,59,88,66,44,29.84,29.74,3,0,0,0.00
2013-5-17,90,76,62,68,63,61,98,69,38,29.95,29.82,3,0,0,0.00
2013-5-18,81,71,63,71,66,62,98,86,61,30.02,29.93,3,0,0,0.66
2013-5-19,82,71,65,74,68,64,98,91,64,30.01,29.90,4,0,0,0.62
2013-5-20,78,70,67,72,61,39,98,74,31,29.96,29.86,4,0,0,1.58
2013-5-21,88,74,68,77,68,54,98,83,61,29.91,29.78,6,0,0,0.01
2013-5-22,87,75,68,74,70,66,98,85,61,29.88,29.74,4,1,0,0.00
2013-5-23,85,75,69,74,71,69,98,88,65,29.80,29.65,4,1,0,0.00
2013-5-24,73,65,51,68,56,43,98,74,43,30.03,29.65,9,1,0,0.00
2013-5-25,76,58,41,54,46,41,98,67,33,30.14,29.98,6,1,0,0.00
2013-5-26,77,61,47,55,50,44,98,70,40,30.15,30.02,4,0,0,0.00
2013-5-27,83,67,49,61,55,49,98,69,39,30.15,30.00,3,0,0,0.00
2013-5-28,86,74,62,71,66,59,98,77,55,30.12,29.99,4,1,0,0.00
2013-5-29,89,75,62,70,66,62,98,76,50,30.10,30.00,5,1,0,0.00
2013-5-30,89,76,63,72,67,62,98,76,45,30.13,30.01,3,0,0,0.00
2013-5-31,91,78,65,74,69,64,98,77,51,30.08,29.94,5,1,0,0.00
2013-6-1,91,78,67,74,69,65,98,76,47,29.99,29.87,5,0,0,0.00
2013-6-2,90,78,68,74,70,67,98,77,52,29.90,29.74,4,1,0,0.00
2013-6-3,83,74,66,80,72,66,98,95,78,29.80,29.66,4,0,0,0.65
2013-6-4,84,71,64,71,66,63,98,86,60,29.94,29.78,4,1,0,0.00
2013-6-5,84,74,64,66,63,58,98,72,45,29.99,29.85,3,1,0,0.00
2013-6-6,79,72,66,77,69,60,98,92,68,29.88,29.68,4,1,0,0.23
2013-6-8,86,77,70,83,76,69,98,96,82,29.94,29.82,2,0,0,0.00
2013-6-9,89,77,66,84,73,61,98,88,70,30.01,29.90,4,0,0,0.06
2013-6-10,85,75,71,85,73,64,98,92,76,29.94,29.73,7,1,0,0.44
2013-6-11,88,77,70,80,72,66,98,86,60,29.81,29.73,5,1,0,0.00
2013-6-12,93,78,64,79,71,62,98,80,51,29.83,29.69,3,0,0,0.00
2013-6-13,98,84,73,84,75,67,98,78,39,29.70,29.45,5,1,0,0.00
2013-6-14,83,75,62,65,57,52,98,57,38,29.85,29.73,5,1,0,0.00
2013-6-15,87,72,57,69,61,57,98,73,38,29.98,29.85,4,0,0,0.00
2013-6-16,89,77,63,71,64,56,89,67,47,29.99,29.85,5,1,0,0.00
2013-6-17,89,78,70,77,72,68,98,84,53,29.91,29.79,5,0,0,0.00
2013-6-18,87,76,69,80,73,69,98,92,65,29.82,29.61,8,1,0,0.50
2013-6-19,84,78,68,75,67,63,98,71,53,29.96,29.84,4,1,0,0.00
2013-6-20,86,74,64,69,62,56,98,70,39,30.08,29.97,4,1,0,0.00
2013-6-21,87,73,58,71,58,49,98,65,28,30.11,30.02,6,1,0,0.00
2013-6-22,84,75,70,80,73,69,98,93,67,30.07,29.95,6,1,0,0.00
2013-6-23,90,77,68,81,73,68,98,89,51,30.07,29.97,4,0,0,0.00
2013-6-24,89,79,71,83,76,70,98,93,65,30.05,29.93,5,1,0,0.00
2013-6-25,91,77,69,86,75,69,98,94,63,29.98,29.85,5,1,0,0.27
2013-6-26,91,77,69,84,74,67,98,91,57,29.88,29.74,9,1,0,0.43
2013-6-27,91,77,67,86,75,66,98,94,68,29.77,29.55,4,1,0,0.01
2013-6-28,93,79,70,85,74,70,98,86,51,29.58,29.42,6,1,0,1.29
2013-6-29,87,76,68,84,75,67,98,97,71,29.57,29.44,2,0,0,0.76
2013-6-30,89,77,71,85,75,70,98,96,70,29.70,29.55,4,1,0,0.40
2013-7-1,85,76,70,84,75,69,98,98,98,29.83,29.68,5,1,0,0.59
2013-7-2,78,74,72,77,73,71,98,98,98,30.03,29.83,8,0,0,0.46
2013-7-3,86,78,73,86,77,72,98,98,98,30.09,30.01,4,1,0,0.09
2013-7-4,91,81,73,87,76,68,98,89,49,30.13,30.03,4,1,0,0.00
2013-7-5,93,81,72,85,76,71,98,87,53,30.13,30.02,4,1,0,0.00
2013-7-6,91,80,73,86,78,72,98,94,61,30.10,29.98,4,0,0,0.00
2013-7-7,93,80,70,85,77,69,98,91,59,30.04,29.91,5,1,0,0.00
2013-7-8,93,81,73,86,77,70,98,91,51,30.02,29.94,6,0,0,0.00
2013-7-9,92,78,72,89,77,71,98,97,76,30.01,29.90,6,0,0,0.12
2013-7-10,91,79,72,88,78,72,98,97,71,29.95,29.80,6,0,0,0.30
2013-7-11,85,75,72,84,75,72,98,98,98,29.82,29.72,3,0,0,0.42
2013-7-12,79,74,71,79,73,71,98,98,98,29.87,29.72,3,0,0,0.23
2013-7-13,80,74,71,79,74,70,98,98,98,30.02,29.85,3,0,0,0.25
2013-7-14,92,79,69,88,77,68,98,94,53,30.17,30.02,6,0,0,0.01
2013-7-15,94,79,69,87,75,68,98,90,46,30.17,30.09,3,0,0,0.00
2013-7-16,96,81,68,90,75,68,98,86,48,30.13,30.03,3,0,0,0.00
2013-7-17,97,84,75,92,76,67,98,80,40,30.08,29.96,4,0,0,0.00
2013-7-18,95,84,74,93,80,71,98,92,46,30.01,29.90,4,0,0,0.00
2013-7-19,94,83,75,93,81,74,98,96,62,29.97,29.84,5,1,0,0.00
2013-7-20,92,81,74,92,81,74,99,99,98,29.89,29.78,4,1,0,0.00
2013-7-21,92,80,73,92,79,73,99,99,99,29.85,29.75,5,0,0,0.01
2013-7-22,91,79,72,91,79,71,99,99,99,29.80,29.66,4,0,0,0.01
2013-7-23,92,81,74,91,80,74,99,95,58,29.69,29.56,4,1,0,0.00
2013-7-24,96,82,70,90,73,65,98,79,37,29.69,29.57,4,0,0,0.07
2013-7-25,83,74,68,82,74,68,98,98,98,29.87,29.66,5,1,0,0.04
2013-7-26,90,75,62,79,65,59,98,76,39,29.96,29.85,4,0,0,0.00
2013-7-27,91,76,68,86,72,63,98,89,42,29.89,29.78,5,0,0,0.23
2013-7-28,90,78,68,89,76,68,98,95,70,29.84,29.76,4,0,0,0.01
2013-7-29,91,78,69,84,71,63,98,84,41,30.02,29.84,3,0,0,0.04
2013-7-30,92,77,62,81,66,60,98,76,36,30.08,29.97,4,0,0,0.00
2013-7-31,86,78,71,85,78,70,98,98,98,30.01,29.84,5,0,0,0.08
2013-8-1,86,76,70,86,75,70,98,98,98,29.87,29.70,3,0,0,0.13
2013-8-2,91,78,67,84,72,66,98,84,49,29.87,29.75,5,0,0,0.11
2013-8-3,92,79,72,91,79,72,98,98,98,29.87,29.73,5,0,0,0.50
2013-8-4,88,76,67,83,70,56,98,83,39,29.87,29.74,4,1,0,0.00
2013-8-5,83,73,65,82,72,64,98,97,78,29.94,29.84,0,0,0,0.11
2013-8-6,82,74,68,81,74,68,98,98,98,29.93,29.84,0,0,0,0.00
2013-8-7,94,79,70,87,73,65,98,87,40,29.96,29.87,0,0,0,0.07
2013-8-8,107,83,70,93,74,63,98,82,25,29.93,29.82,0,0,0,0.00
2013-8-9,106,85,73,95,77,68,98,84,30,29.90,29.81,0,0,0,0.00
2013-8-10,113,86,74,100,78,65,98,83,25,29.92,29.84,0,0,0,0.00
2013-8-11,98,84,77,79,74,-100,98,77,49,29.95,29.85,3,-12,0,0.06
2013-8-12,98,83,73,76,73,70,99,75,43,29.88,29.77,4,1,0,0.00
2013-8-13,92,80,70,78,74,70,99,86,61,29.81,29.61,5,1,0,0.19
2013-8-14,79,73,63,74,66,59,99,79,61,29.93,29.66,5,1,0,0.00
2013-8-15,82,67,59,60,58,56,97,75,43,30.02,29.91,5,1,0,0.00
2013-8-16,74,66,58,61,59,57,99,81,60,30.03,29.94,4,1,0,0.00
2013-8-17,72,68,64,72,66,61,99,95,87,30.02,29.95,4,1,0,0.44
2013-8-18,86,74,69,72,69,66,99,86,62,30.04,29.96,4,1,0,0.01
2013-8-19,77,71,67,73,69,66,99,96,87,30.04,29.94,2,0,0,0.40
2013-8-20,88,76,68,74,72,68,99,87,63,30.04,29.95,3,0,0,0.00
2013-8-21,92,77,70,76,73,70,99,89,58,30.08,29.95,5,1,0,0.08
2013-8-22,93,80,70,76,71,68,99,79,46,30.02,29.83,4,1,0,0.00
2013-8-23,93,78,68,74,71,67,99,81,50,29.91,29.77,6,1,0,0.00
2013-8-24,89,74,64,67,62,56,96,69,36,30.15,29.91,7,2,0,0.00
2013-8-25,84,69,58,64,59,54,99,73,39,30.25,30.12,6,1,0,0.00
2013-8-26,88,69,54,62,57,53,99,72,35,30.17,29.95,4,0,0,0.00
2013-8-27,92,75,62,71,66,58,94,75,48,29.99,29.80,4,0,0,0.00
2013-8-28,88,77,69,76,73,69,99,87,62,29.83,29.72,2,0,0,0.00
2013-8-29,94,81,73,74,72,70,96,78,47,29.86,29.69,5,2,0,0.00
2013-8-30,93,77,64,70,66,64,99,73,39,29.92,29.77,4,1,0,0.00
2013-8-31,96,79,67,73,70,66,99,77,44,29.83,29.69,7,1,0,0.00
2013-9-1,96,79,70,78,73,69,99,83,51,29.75,29.59,4,1,0,2.58
2013-9-2,93,78,69,76,72,69,99,83,55,29.74,29.64,3,1,0,0.00
2013-9-3,92,80,72,75,72,69,97,78,52,29.78,29.63,4,1,0,0.00
2013-9-4,90,77,67,72,68,62,94,76,52,29.93,29.78,4,1,0,0.00
2013-9-5,92,76,65,69,64,57,97,71,34,29.96,29.86,4,1,0,0.00
2013-9-6,86,73,64,64,60,56,92,67,42,30.03,29.92,5,1,0,0.00
2013-9-7,87,72,58,65,61,56,94,73,44,29.99,29.81,4,1,0,0.00
2013-9-8,93,76,63,65,62,58,93,66,34,29.83,29.73,4,1,0,0.00
2013-9-9,93,76,64,69,66,62,95,74,43,29.99,29.83,4,1,0,0.00
2013-9-10,98,79,67,72,68,65,96,70,39,30.11,29.99,4,1,0,0.00
2013-9-11,94,79,66,71,67,64,92,70,46,30.08,29.93,5,1,0,0.00
2013-9-12,95,79,69,73,69,66,90,74,49,29.95,29.64,4,1,0,0.00
2013-9-13,90,76,69,69,62,51,92,66,41,29.72,29.58,7,1,0,0.00
2013-9-14,82,68,58,54,52,47,87,58,36,29.98,29.72,7,2,0,0.00
2013-9-15,85,68,53,61,56,50,95,70,39,30.10,29.95,5,1,0,0.00
2013-9-16,88,75,67,72,64,58,98,72,41,30.04,29.88,8,1,0,0.35
2013-9-17,81,68,60,59,54,50,81,63,37,30.17,30.04,5,2,0,0.00
2013-9-18,79,60,49,54,51,47,95,75,38,30.17,30.01,4,1,0,0.00
2013-9-19,82,66,53,62,57,51,93,74,48,30.07,29.92,3,0,0,0.00
2013-9-20,71,68,63,66,62,58,91,84,71,29.94,29.81,2,0,0,0.25
2013-9-21,80,71,65,71,67,63,96,88,73,29.83,29.56,4,1,0,1.17
2013-9-22,80,68,58,65,61,55,97,79,47,29.74,29.55,5,2,0,1.04
2013-9-23,76,62,54,56,53,50,94,74,47,29.94,29.75,4,1,0,0.00
2013-9-24,81,64,52,61,55,50,95,77,47,29.97,29.79,3,0,0,0.00
2013-9-25,77,64,52,62,57,51,95,80,52,29.82,29.72,3,0,0,0.00
2013-9-26,81,67,57,60,57,52,94,73,40,29.88,29.72,5,1,0,0.00
2013-9-27,78,63,52,60,55,50,97,78,48,30.04,29.88,5,1,0,0.00
2013-9-28,78,62,50,57,53,49,97,76,47,30.13,30.01,5,1,0,0.00
2013-9-29,78,61,50,58,52,48,95,76,42,30.05,29.88,9,1,0,0.00
2013-9-30,83,62,50,60,53,48,95,77,39,29.98,29.84,2,0,0,0.00
2013-10-1,86,66,50,63,57,49,95,76,43,30.00,29.85,4,0,0,0.00
2013-10-2,88,70,57,64,59,55,96,74,39,29.99,29.87,3,0,0,0.00
2013-10-3,88,71,58,66,62,56,95,75,44,29.99,29.89,3,0,0,0.00
2013-10-4,89,73,62,68,64,60,95,76,46,29.99,29.88,5,0,0,0.00
2013-10-5,92,74,61,70,64,59,94,74,43,29.97,29.86,3,0,0,0.00
2013-10-6,86,74,64,73,68,62,97,82,56,29.94,29.76,5,1,0,0.00
2013-10-7,75,71,65,72,69,60,95,92,84,29.83,29.68,3,1,0,0.67
2013-10-8,65,61,59,60,51,47,85,71,63,30.06,29.82,9,3,0,0.00
2013-10-9,63,59,55,56,53,50,93,82,74,30.05,29.95,7,3,0,0.04
2013-10-10,61,57,54,59,55,52,95,92,90,29.94,29.80,7,2,0,0.23
2013-10-11,70,63,58,63,60,57,95,89,76,29.83,29.77,4,1,0,0.04
2013-10-12,70,65,60,64,62,58,94,90,82,29.93,29.81,4,1,0,0.01
2013-10-13,69,64,62,64,62,60,95,91,83,30.05,29.92,6,2,0,0.06
2013-10-14,68,62,57,62,60,55,96,92,83,30.10,30.03,5,2,0,0.22
2013-10-15,74,63,54,62,58,53,97,84,65,30.06,29.90,5,1,0,0.00
2013-10-16,72,66,60,63,61,58,94,86,71,29.92,29.81,3,0,0,0.00
2013-10-17,77,67,59,67,62,58,96,85,68,29.83,29.69,8,0,0,0.00
2013-10-18,72,63,57,63,54,48,95,74,51,29.90,29.73,4,1,0,0.00
2013-10-19,72,64,59,65,60,55,93,86,77,29.82,29.66,3,0,0,0.00
2013-10-20,68,55,44,57,46,42,96,75,40,29.98,29.75,5,1,0,0.00
2013-10-21,71,53,38,51,45,36,96,77,43,30.04,29.87,2,0,0,0.00
2013-10-22,67,57,50,59,54,48,94,88,75,29.87,29.67,3,0,0,0.00
2013-10-23,68,59,47,58,48,34,97,71,36,29.86,29.53,6,2,0,0.00
2013-10-24,61,47,35,40,36,32,91,68,39,30.04,29.86,5,1,0,0.00
2013-10-25,58,46,34,36,32,28,89,60,34,30.24,30.03,6,1,0,0.00
2013-10-26,61,43,28,37,32,26,95,69,36,30.24,29.95,4,1,0,0.00
2013-10-27,70,53,40,47,41,36,91,67,38,30.00,29.90,3,0,0,0.00
2013-10-28,70,55,43,56,49,41,94,82,59,30.13,29.99,3,0,0,0.00
2013-10-29,76,59,49,57,52,48,96,81,50,30.21,30.10,3,0,0,0.00
2013-10-30,75,62,52,60,56,50,97,82,56,30.16,30.01,3,0,0,0.00
2013-10-31,76,65,55,63,57,53,95,77,56,30.05,29.78,5,1,0,0.00
2013-11-1,75,68,60,66,64,59,97,88,72,29.77,29.52,5,2,0,1.29
2013-11-2,72,61,50,59,52,43,97,76,41,29.78,29.53,7,1,0,0.00
2013-11-3,64,49,39,43,39,36,90,71,38,30.24,29.79,5,1,0,0.00
2013-11-4,58,45,34,39,34,32,93,70,38,30.43,30.24,7,1,0,0.00
2013-11-13,33,27,26,24,17,-100,86,76,62,29.93,29.91,0,-43,0,0.00
2013-11-14,59,38,23,27,24,21,91,62,25,29.94,29.82,4,1,0,0.00
2013-11-15,63,45,28,48,36,24,92,74,41,29.89,29.75,3,0,0,0.00
2013-11-16,71,57,49,58,52,46,96,85,64,29.86,29.77,3,0,0,0.00
2013-11-17,73,62,52,65,58,51,97,87,66,29.80,29.56,4,0,0,0.09
2013-11-18,77,66,54,66,54,31,96,68,37,29.69,29.47,5,2,0,0.01
2013-11-19,59,48,40,31,30,28,68,49,33,30.06,29.69,6,2,0,0.00
2013-11-20,56,45,37,38,32,28,83,63,45,30.18,30.06,6,2,0,0.00
2013-11-21,65,50,41,50,42,37,87,76,56,30.21,30.08,5,1,0,0.00
2013-11-22,72,59,46,61,53,43,93,81,67,30.08,29.76,4,1,0,0.04
2013-11-23,61,55,42,59,45,22,96,71,41,29.88,29.73,5,1,0,0.05
2013-11-24,42,33,23,24,11,3,75,42,24,30.24,29.88,9,2,0,0.00
2013-11-25,46,31,18,17,13,8,90,53,21,30.28,30.05,4,0,0,0.00
2013-11-26,65,47,37,64,38,14,98,74,38,30.04,29.25,5,2,0,0.99
2013-11-27,51,40,30,49,37,19,98,88,64,29.90,29.19,5,2,0,1.02
2013-11-28,47,32,22,26,21,17,88,65,37,30.21,29.90,4,1,0,0.00
2013-11-29,53,35,24,29,25,22,95,71,36,30.34,30.19,4,1,0,0.00
2013-11-30,52,36,27,34,28,23,92,76,50,30.34,30.05,5,1,0,0.00
2013-12-1,60,43,27,40,34,26,95,75,40,30.05,29.70,3,0,0,0.00
2013-12-2,60,45,37,46,40,35,95,83,58,29.69,29.50,2,0,0,0.00
2013-12-3,61,47,32,47,40,31,96,81,58,29.70,29.57,4,1,0,0.00
2013-12-4,68,57,51,58,52,46,95,84,71,29.81,29.69,4,0,0,0.00
2013-12-5,68,62,53,63,60,52,98,92,83,29.86,29.76,4,1,0,0.02
2013-12-6,79,70,64,65,63,61,93,79,62,29.80,29.66,7,2,0,0.00
2013-12-7,68,50,43,64,45,34,94,82,70,30.18,29.70,10,3,0,0.33
2013-12-8,43,36,34,34,32,30,96,87,64,30.19,30.02,6,2,0,0.13
2013-12-9,46,40,35,45,39,34,97,96,93,30.02,29.79,3,0,0,0.20
2013-12-10,49,43,28,46,41,26,98,90,67,30.06,29.64,4,1,0,0.80
2013-12-11,50,35,23,30,26,21,95,74,40,30.19,30.01,3,0,0,0.00
2013-12-12,46,34,25,28,23,16,94,69,32,30.15,30.00,5,1,0,0.00
2013-12-13,53,35,21,32,24,20,94,70,31,30.12,29.98,3,0,0,0.00
2013-12-14,48,42,38,43,36,27,97,81,47,30.02,29.49,4,1,0,1.17
2013-12-15,55,43,32,44,37,29,98,81,55,29.81,29.42,5,1,0,0.04
2013-12-16,56,40,28,38,32,26,94,76,46,29.91,29.80,4,1,0,0.00
2013-12-17,62,48,35,41,37,33,92,68,43,29.85,29.61,7,1,0,0.00
2013-12-18,50,40,28,38,24,19,87,57,29,30.04,29.77,6,1,0,0.00
2013-12-19,64,44,28,32,27,24,89,57,24,30.07,29.95,6,1,0,0.00
2013-12-20,68,54,42,55,46,32,90,76,55,29.99,29.85,4,1,0,0.00
2013-12-21,74,62,50,66,57,48,92,85,67,29.89,29.76,6,2,0,0.00
2013-12-22,79,71,64,68,66,62,96,84,64,29.82,29.73,10,3,0,0.28
2013-12-23,67,60,46,66,59,41,98,95,80,29.88,29.71,5,1,0,2.08
2013-12-24,49,42,30,40,30,15,81,64,47,30.19,29.85,7,2,0,0.00
2013-12-25,42,30,23,21,15,11,85,58,30,30.29,30.14,4,1,0,0.00
2013-12-26,52,36,24,36,29,20,93,78,43,30.14,29.98,2,0,0,0.05
2013-12-27,56,35,24,29,25,22,94,71,27,30.21,30.10,3,0,0,0.00
2013-12-28,60,41,24,38,30,22,94,69,29,30.15,29.89,3,0,0,0.00
2013-12-29,62,49,43,62,47,37,99,94,69,29.88,29.42,6,1,0,2.44
2013-12-30,55,45,34,46,40,34,98,85,64,29.87,29.66,4,0,0,0.00
2013-12-31,51,42,31,37,32,25,90,70,38,30.09,29.85,4,1,0,0.00
2014-1-1,52,39,30,33,29,24,93,70,35,30.16,29.89,4,0,0,0.00
2014-1-2,50,44,37,45,39,33,97,85,70,29.89,29.31,5,0,0,0.35